Time;durP1;ratioP1;P1;durP2;ratioP2;P2;SDS_P1;SDS_P2;PMS_P1;PMS_P2;Temp;Humidity;BMP_temperature;BMP_pressure;BME280_temperature;BME280_humidity;BME280_pressure;Samples;Min_cycle;Max_cycle;Signal;HPM_P1;HPM_P2
2021/12/29 00:00:46;;;;;;;12.55;2.92;;;16.10;99.90;;;;;;5065121;28;20608;-68
2021/12/29 00:03:12;;;;;;;10.52;2.40;;;16.00;99.90;;;;;;5068457;28;20102;-67
2021/12/29 00:05:38;;;;;;;12.95;2.72;;;16.10;99.90;;;;;;5067335;28;20405;-67
2021/12/29 00:08:05;;;;;;;12.18;2.03;;;16.10;99.90;;;;;;5065173;28;20040;-67
2021/12/29 00:10:31;;;;;;;10.05;2.10;;;16.10;99.90;;;;;;5064957;28;20123;-68
2021/12/29 00:12:57;;;;;;;12.73;1.92;;;16.00;99.90;;;;;;5064826;28;20029;-66
2021/12/29 00:15:26;;;;;;;11.95;2.33;;;16.00;99.90;;;;;;5066681;28;20040;-66
2021/12/29 00:17:52;;;;;;;10.70;1.88;;;15.90;99.90;;;;;;5067967;28;20033;-66
2021/12/29 00:20:22;;;;;;;10.05;2.28;;;15.90;99.90;;;;;;5069402;28;20044;-66
2021/12/29 00:22:48;;;;;;;12.60;1.92;;;15.80;99.90;;;;;;5067243;28;20037;-66
2021/12/29 00:25:14;;;;;;;9.70;2.10;;;15.80;99.90;;;;;;5047764;28;20497;-66
2021/12/29 00:27:40;;;;;;;12.10;2.05;;;15.70;99.90;;;;;;5067589;28;20036;-66
2021/12/29 00:30:10;;;;;;;10.73;1.92;;;15.70;99.90;;;;;;5059263;28;20043;-67
2021/12/29 00:32:35;;;;;;;10.55;2.03;;;15.60;99.90;;;;;;5066900;28;20598;-67
2021/12/29 00:35:03;;;;;;;12.88;2.40;;;15.70;99.90;;;;;;5067078;28;20052;-66
2021/12/29 00:37:28;;;;;;;7.25;1.65;;;15.70;99.90;;;;;;5066521;28;20024;-66
2021/12/29 00:39:54;;;;;;;10.48;1.88;;;15.70;99.90;;;;;;5066485;28;20107;-67
2021/12/29 00:42:20;;;;;;;10.68;1.92;;;15.60;99.90;;;;;;5066859;28;20025;-66
2021/12/29 00:44:46;;;;;;;11.70;1.67;;;15.60;99.90;;;;;;5068516;28;20406;-66
2021/12/29 00:47:13;;;;;;;10.02;1.80;;;15.60;99.90;;;;;;5067439;28;20502;-67
2021/12/29 00:49:40;;;;;;;10.40;1.92;;;15.70;99.90;;;;;;5065014;28;20115;-67
2021/12/29 00:52:07;;;;;;;8.98;1.40;;;15.70;99.90;;;;;;5064259;28;20357;-66
2021/12/29 00:54:35;;;;;;;7.70;1.55;;;15.80;99.90;;;;;;5065421;28;20120;-67
2021/12/29 00:57:01;;;;;;;9.75;2.15;;;15.80;99.90;;;;;;5068083;28;20063;-67
2021/12/29 00:59:27;;;;;;;13.95;1.92;;;15.80;99.90;;;;;;5047933;28;20541;-66
2021/12/29 01:01:53;;;;;;;7.72;1.65;;;15.80;99.90;;;;;;5063724;28;20064;-67
2021/12/29 01:04:20;;;;;;;7.65;1.55;;;15.80;99.90;;;;;;5064312;28;20088;-66
2021/12/29 01:06:46;;;;;;;10.05;2.40;;;15.80;99.90;;;;;;5064038;28;20025;-66
2021/12/29 01:09:12;;;;;;;7.07;1.90;;;15.70;99.90;;;;;;5068201;28;20110;-67
2021/12/29 01:11:38;;;;;;;9.93;1.58;;;15.70;99.90;;;;;;5066433;28;20025;-67
2021/12/29 01:14:07;;;;;;;7.43;2.83;;;15.70;99.90;;;;;;5067587;28;20086;-66
2021/12/29 01:19:13;;;;;;;5.78;1.30;;;15.60;99.90;;;;;;5066873;28;20402;-67
2021/12/29 01:21:41;;;;;;;7.05;1.23;;;15.60;99.90;;;;;;5067578;28;20074;-66
2021/12/29 01:24:08;;;;;;;10.05;2.60;;;15.60;99.90;;;;;;5070409;28;20032;-66
2021/12/29 01:26:35;;;;;;;7.18;1.23;;;15.70;99.90;;;;;;5031585;28;20025;-66
2021/12/29 01:29:01;;;;;;;4.63;1.13;;;15.80;99.90;;;;;;5066449;28;20033;-66
2021/12/29 01:31:27;;;;;;;8.48;1.45;;;15.70;99.90;;;;;;5067326;28;21064;-66
2021/12/29 01:33:52;;;;;;;4.43;1.10;;;15.80;99.90;;;;;;5067344;28;20032;-66
2021/12/29 01:36:19;;;;;;;5.05;0.98;;;15.80;99.90;;;;;;5070159;28;20162;-66
2021/12/29 01:38:44;;;;;;;9.98;1.75;;;15.80;99.90;;;;;;5069192;28;20504;-66
2021/12/29 01:41:10;;;;;;;4.30;0.95;;;15.80;99.90;;;;;;5070903;28;20023;-66
2021/12/29 01:43:36;;;;;;;3.58;0.90;;;15.80;99.90;;;;;;5069594;28;20441;-66
2021/12/29 01:46:02;;;;;;;4.95;1.40;;;15.80;99.90;;;;;;5069595;28;20067;-66
2021/12/29 01:48:27;;;;;;;3.90;1.20;;;15.80;99.90;;;;;;5071412;28;20107;-66
2021/12/29 01:50:53;;;;;;;8.20;1.35;;;15.70;99.90;;;;;;5069337;28;20409;-66
2021/12/29 01:53:26;;;;;;;4.55;1.35;;;15.80;99.90;;;;;;5069520;28;20581;-68
2021/12/29 01:55:53;;;;;;;8.68;1.17;;;15.90;99.90;;;;;;5068963;28;20040;-68
2021/12/29 01:58:20;;;;;;;4.88;0.85;;;16.00;99.90;;;;;;5068902;28;20041;-68
2021/12/29 02:00:47;;;;;;;9.77;1.38;;;15.80;99.90;;;;;;5065131;28;20037;-68
2021/12/29 02:03:13;;;;;;;8.60;1.10;;;15.80;99.90;;;;;;5070096;28;20028;-68
2021/12/29 02:05:39;;;;;;;4.28;1.10;;;15.90;99.90;;;;;;5070158;28;20108;-67
2021/12/29 02:08:06;;;;;;;7.43;1.17;;;15.90;99.90;;;;;;5069303;28;20070;-68
2021/12/29 02:10:40;;;;;;;2.67;0.88;;;15.90;99.90;;;;;;5068244;28;20048;-68
2021/12/29 02:13:07;;;;;;;4.75;1.00;;;15.90;99.90;;;;;;5068256;28;20111;-68
2021/12/29 02:15:33;;;;;;;3.72;0.90;;;15.90;99.90;;;;;;5073876;28;20033;-68
2021/12/29 02:17:58;;;;;;;6.70;1.05;;;15.90;99.90;;;;;;5048561;28;20049;-68
2021/12/29 02:20:24;;;;;;;5.43;1.15;;;15.90;99.90;;;;;;5052752;28;20032;-68
2021/12/29 02:23:01;;;;;;;4.57;1.20;;;15.90;99.90;;;;;;5070593;28;20471;-68
2021/12/29 02:25:46;;;;;;;4.03;0.90;;;15.90;99.90;;;;;;5067202;28;20494;-68
2021/12/29 02:28:13;;;;;;;3.88;1.13;;;15.90;99.90;;;;;;5071615;28;20036;-68
2021/12/29 02:30:39;;;;;;;4.32;1.27;;;15.90;99.90;;;;;;5074217;28;20022;-68
2021/12/29 02:33:06;;;;;;;7.78;1.33;;;15.80;99.90;;;;;;5071774;28;20024;-68
2021/12/29 02:35:32;;;;;;;6.22;1.20;;;15.90;99.90;;;;;;5074172;28;20059;-68
2021/12/29 02:38:00;;;;;;;5.63;1.30;;;15.80;99.90;;;;;;5071007;28;20452;-68
2021/12/29 02:40:28;;;;;;;3.20;0.95;;;15.80;99.90;;;;;;5065981;28;20438;-68
2021/12/29 02:42:54;;;;;;;4.97;1.08;;;15.80;99.90;;;;;;5071952;28;20035;-68
2021/12/29 02:45:22;;;;;;;6.53;1.33;;;15.80;99.90;;;;;;5072735;28;20111;-67
2021/12/29 02:47:48;;;;;;;6.07;1.58;;;15.80;99.90;;;;;;5071961;28;20028;-68
2021/12/29 02:50:16;;;;;;;7.03;1.48;;;15.80;99.90;;;;;;5071598;28;20107;-68
2021/12/29 02:52:44;;;;;;;6.75;1.38;;;15.80;99.90;;;;;;5070110;28;20039;-68
2021/12/29 02:55:10;;;;;;;5.82;1.30;;;15.70;99.90;;;;;;5070208;28;20514;-66
2021/12/29 02:57:36;;;;;;;4.22;0.88;;;15.70;99.90;;;;;;5073361;28;20048;-67
2021/12/29 03:00:05;;;;;;;4.32;0.95;;;15.70;99.90;;;;;;5070220;28;20045;-66
2021/12/29 03:02:30;;;;;;;4.18;1.02;;;15.80;99.90;;;;;;5072678;28;20017;-67
2021/12/29 03:04:59;;;;;;;4.68;0.82;;;15.70;99.90;;;;;;5051503;28;20035;-66
2021/12/29 03:07:25;;;;;;;2.50;0.93;;;15.70;99.90;;;;;;5069507;28;20028;-66
2021/12/29 03:09:51;;;;;;;4.90;0.88;;;15.70;99.90;;;;;;5038364;28;20032;-66
2021/12/29 03:12:17;;;;;;;2.67;1.05;;;15.70;99.90;;;;;;5072917;28;20039;-66
2021/12/29 03:14:52;;;;;;;4.57;1.00;;;15.70;99.90;;;;;;5049006;28;20032;-67
2021/12/29 03:17:18;;;;;;;1.48;0.65;;;15.60;99.90;;;;;;5070607;28;20029;-67
2021/12/29 03:19:44;;;;;;;4.75;0.90;;;15.70;99.90;;;;;;5052081;28;20029;-66
2021/12/29 03:22:10;;;;;;;3.92;0.80;;;15.60;99.90;;;;;;5068448;28;20067;-66
2021/12/29 03:24:35;;;;;;;3.10;0.80;;;15.60;99.90;;;;;;5072067;28;20028;-66
2021/12/29 03:27:01;;;;;;;2.50;0.80;;;15.60;99.90;;;;;;5069244;28;20517;-66
2021/12/29 03:29:27;;;;;;;3.72;0.70;;;15.60;99.90;;;;;;5070922;28;20094;-66
2021/12/29 03:31:53;;;;;;;3.40;0.80;;;15.50;99.90;;;;;;5050353;28;20116;-66
2021/12/29 03:34:18;;;;;;;1.90;0.80;;;15.60;99.90;;;;;;5068420;28;20116;-67
2021/12/29 03:36:44;;;;;;;5.15;1.02;;;15.50;99.90;;;;;;5071391;28;20043;-66
2021/12/29 03:39:10;;;;;;;4.97;0.80;;;15.60;99.90;;;;;;5068454;28;20573;-67
2021/12/29 03:41:37;;;;;;;3.70;0.80;;;15.50;99.90;;;;;;5071782;28;20028;-67
2021/12/29 03:44:03;;;;;;;4.68;1.00;;;15.50;99.90;;;;;;5067825;28;20036;-66
2021/12/29 03:46:29;;;;;;;4.18;0.82;;;15.50;99.90;;;;;;5071443;28;20035;-66
2021/12/29 03:48:55;;;;;;;5.78;1.25;;;15.50;99.90;;;;;;5053382;28;20123;-66
2021/12/29 03:51:21;;;;;;;4.30;0.90;;;15.40;99.90;;;;;;5053145;28;20059;-67
2021/12/29 03:53:47;;;;;;;2.97;0.80;;;15.40;99.90;;;;;;5074043;28;20485;-69
2021/12/29 03:56:13;;;;;;;2.55;0.77;;;15.40;99.90;;;;;;5054800;28;20134;-69
2021/12/29 03:58:39;;;;;;;4.00;0.90;;;15.50;99.90;;;;;;5070893;28;20115;-68
2021/12/29 04:01:08;;;;;;;3.17;0.80;;;15.40;99.90;;;;;;5071486;28;20063;-67
2021/12/29 04:03:34;;;;;;;3.45;0.80;;;15.50;99.90;;;;;;5071088;28;20481;-68
2021/12/29 04:06:00;;;;;;;4.00;0.93;;;15.40;99.90;;;;;;5072442;28;20033;-68
2021/12/29 04:08:26;;;;;;;3.65;0.70;;;15.40;99.90;;;;;;5073739;28;20040;-68
2021/12/29 04:10:52;;;;;;;6.60;1.08;;;15.30;99.90;;;;;;5071134;28;20102;-68
2021/12/29 04:13:18;;;;;;;1.35;0.73;;;15.30;99.90;;;;;;5070925;28;20060;-68
2021/12/29 04:15:45;;;;;;;2.72;0.73;;;15.30;99.90;;;;;;5070996;28;20064;-68
2021/12/29 04:18:26;;;;;;;3.38;0.90;;;15.30;99.90;;;;;;5053099;28;20035;-68
2021/12/29 04:21:01;;;;;;;7.97;1.10;;;15.30;99.90;;;;;;5071141;28;20398;-68
2021/12/29 04:23:32;;;;;;;3.95;1.00;;;15.30;99.90;;;;;;5073346;28;20028;-68
2021/12/29 04:26:01;;;;;;;4.30;1.00;;;15.30;99.90;;;;;;5069981;28;20028;-68
2021/12/29 04:28:27;;;;;;;4.68;1.08;;;15.30;99.90;;;;;;5070451;28;20036;-68
2021/12/29 04:30:59;;;;;;;5.22;1.45;;;15.30;99.90;;;;;;5053447;28;20123;-68
2021/12/29 04:33:26;;;;;;;4.55;0.80;;;15.30;99.90;;;;;;5070456;28;20040;-68
2021/12/29 04:35:52;;;;;;;4.22;1.10;;;15.30;99.90;;;;;;5072910;28;20386;-68
2021/12/29 04:38:21;;;;;;;7.13;1.73;;;15.20;99.90;;;;;;5071353;28;20043;-68
2021/12/29 04:40:48;;;;;;;4.72;0.90;;;15.20;99.90;;;;;;5070663;28;20077;-68
2021/12/29 04:43:13;;;;;;;6.57;1.10;;;15.30;99.90;;;;;;5070296;28;20028;-68
2021/12/29 04:45:39;;;;;;;7.28;1.17;;;15.20;99.90;;;;;;5070124;28;20025;-67
2021/12/29 04:48:12;;;;;;;5.13;1.10;;;15.20;99.90;;;;;;5070990;28;20036;-68
2021/12/29 04:50:39;;;;;;;7.22;1.40;;;15.10;99.90;;;;;;5073024;28;20036;-68
2021/12/29 04:53:08;;;;;;;6.20;1.27;;;15.00;99.90;;;;;;5071268;28;20032;-68
2021/12/29 04:55:34;;;;;;;5.13;1.02;;;15.00;99.90;;;;;;5052435;28;20127;-66
2021/12/29 04:58:01;;;;;;;4.57;1.08;;;14.90;99.90;;;;;;5069924;28;20617;-66
2021/12/29 05:00:29;;;;;;;7.30;1.30;;;14.90;99.90;;;;;;5069776;28;20814;-67
2021/12/29 05:02:56;;;;;;;4.10;1.00;;;14.90;99.90;;;;;;5072121;28;20078;-66
2021/12/29 05:05:38;;;;;;;6.28;1.45;;;14.80;99.90;;;;;;5071799;28;20020;-66
2021/12/29 05:10:51;;;;;;;5.68;1.70;;;14.80;99.90;;;;;;5068400;28;20048;-66
2021/12/29 05:13:17;;;;;;;4.45;1.30;;;14.70;99.90;;;;;;5069834;28;20032;-66
2021/12/29 05:15:43;;;;;;;5.72;1.20;;;14.80;99.90;;;;;;5069670;28;20063;-67
2021/12/29 05:18:10;;;;;;;5.05;1.10;;;14.80;99.90;;;;;;5052430;28;20132;-66
2021/12/29 05:20:35;;;;;;;5.68;1.30;;;14.80;99.90;;;;;;5071194;28;20085;-66
2021/12/29 05:23:01;;;;;;;6.82;1.10;;;14.70;99.90;;;;;;5069440;28;20056;-66
2021/12/29 05:25:28;;;;;;;7.63;1.40;;;14.70;99.90;;;;;;5051700;28;20040;-66
2021/12/29 05:27:55;;;;;;;6.28;1.30;;;14.60;99.90;;;;;;5069537;28;20116;-66
2021/12/29 05:30:21;;;;;;;7.47;1.40;;;14.60;99.90;;;;;;5069855;28;20032;-66
2021/12/29 05:32:47;;;;;;;6.57;1.20;;;14.60;99.90;;;;;;5071848;28;20025;-66
2021/12/29 05:35:14;;;;;;;6.18;1.30;;;14.60;99.90;;;;;;5071038;28;20035;-66
2021/12/29 05:37:39;;;;;;;3.25;1.08;;;14.60;99.90;;;;;;5069419;28;20054;-66
2021/12/29 05:40:07;;;;;;;6.30;1.52;;;14.50;99.90;;;;;;5069620;28;20387;-66
2021/12/29 05:42:36;;;;;;;4.97;1.52;;;14.50;99.90;;;;;;5069591;28;20108;-66
2021/12/29 05:45:04;;;;;;;6.38;1.48;;;14.50;99.90;;;;;;5070571;28;20036;-66
2021/12/29 05:47:30;;;;;;;6.78;1.27;;;14.50;99.90;;;;;;5072307;28;20036;-66
2021/12/29 05:49:56;;;;;;;5.63;1.60;;;14.50;99.90;;;;;;5068474;28;20032;-66
2021/12/29 05:52:22;;;;;;;6.28;1.20;;;14.60;99.90;;;;;;5069235;28;20037;-66
2021/12/29 05:54:48;;;;;;;3.65;1.20;;;14.50;99.90;;;;;;5069297;28;20040;-66
2021/12/29 05:57:13;;;;;;;5.20;1.40;;;14.50;99.90;;;;;;5049727;28;20040;-66
2021/12/29 05:59:39;;;;;;;3.00;1.10;;;14.50;99.90;;;;;;5072476;28;20072;-67
2021/12/29 06:02:05;;;;;;;7.05;1.90;;;14.50;99.90;;;;;;5069804;28;20028;-66
2021/12/29 06:04:31;;;;;;;4.88;1.65;;;14.50;99.90;;;;;;5069012;28;20102;-67
2021/12/29 06:06:57;;;;;;;5.00;1.52;;;14.50;99.90;;;;;;5068977;28;20025;-66
2021/12/29 06:09:23;;;;;;;5.20;1.67;;;14.50;99.90;;;;;;5033442;28;20019;-66
2021/12/29 06:11:49;;;;;;;4.35;1.50;;;14.50;99.90;;;;;;5071196;28;20033;-66
2021/12/29 06:14:14;;;;;;;5.07;1.42;;;14.50;99.90;;;;;;5070411;28;20071;-66
2021/12/29 06:16:40;;;;;;;4.90;2.03;;;14.50;99.90;;;;;;5068639;28;20090;-66
2021/12/29 06:19:06;;;;;;;8.25;1.50;;;14.50;99.90;;;;;;5069027;28;20616;-66
2021/12/29 06:21:31;;;;;;;3.55;1.13;;;14.50;99.90;;;;;;5068933;28;20509;-67
2021/12/29 06:23:57;;;;;;;3.63;1.00;;;14.50;99.90;;;;;;5052708;28;21076;-66
2021/12/29 06:26:23;;;;;;;4.68;1.60;;;14.50;99.90;;;;;;5071299;28;20043;-66
2021/12/29 06:28:49;;;;;;;5.00;1.20;;;14.50;99.90;;;;;;5068796;28;20040;-66
2021/12/29 06:31:15;;;;;;;4.15;1.15;;;14.50;99.90;;;;;;5068874;28;20064;-66
2021/12/29 06:33:41;;;;;;;2.33;0.90;;;14.50;99.90;;;;;;5068761;28;20028;-66
2021/12/29 06:36:07;;;;;;;4.55;1.42;;;14.60;99.90;;;;;;5062173;28;20033;-66
2021/12/29 06:38:34;;;;;;;3.95;1.38;;;14.50;99.90;;;;;;5071755;28;20032;-66
2021/12/29 06:41:00;;;;;;;5.50;2.03;;;14.50;99.90;;;;;;5068114;28;20063;-66
2021/12/29 06:43:26;;;;;;;5.35;2.22;;;14.50;99.90;;;;;;5069026;28;20033;-66
2021/12/29 06:45:52;;;;;;;6.15;1.70;;;14.50;99.90;;;;;;5068546;28;20024;-66
2021/12/29 06:48:18;;;;;;;7.20;1.60;;;14.50;99.90;;;;;;5069188;28;20148;-66
2021/12/29 06:50:44;;;;;;;2.25;1.00;;;14.50;99.90;;;;;;5071185;28;20028;-66
2021/12/29 06:53:10;;;;;;;4.35;1.20;;;14.50;99.90;;;;;;5051748;28;20447;-66
2021/12/29 06:55:36;;;;;;;3.28;1.17;;;14.50;99.90;;;;;;5061185;28;20426;-66
2021/12/29 06:58:02;;;;;;;4.90;1.42;;;14.50;99.90;;;;;;5068537;28;20041;-66
2021/12/29 07:00:28;;;;;;;4.00;1.50;;;14.50;99.90;;;;;;5070471;28;20036;-66
2021/12/29 07:02:54;;;;;;;2.53;1.15;;;14.40;99.90;;;;;;5074713;28;20032;-66
2021/12/29 07:05:20;;;;;;;3.67;1.20;;;14.40;99.90;;;;;;5073966;28;20482;-66
2021/12/29 07:07:49;;;;;;;4.60;1.63;;;14.40;99.90;;;;;;5072177;28;20279;-66
2021/12/29 07:10:15;;;;;;;3.92;1.67;;;14.50;99.90;;;;;;5072750;28;20032;-66
2021/12/29 07:12:41;;;;;;;4.25;1.77;;;14.50;99.90;;;;;;5072087;28;20024;-66
2021/12/29 07:15:08;;;;;;;6.18;2.88;;;14.50;99.90;;;;;;5064956;28;20414;-66
2021/12/29 07:17:33;;;;;;;9.95;4.18;;;14.50;99.90;;;;;;5075680;28;20020;-66
2021/12/29 07:19:59;;;;;;;5.57;2.40;;;14.50;99.90;;;;;;5071485;28;20052;-67
2021/12/29 07:22:25;;;;;;;2.40;0.90;;;14.50;99.90;;;;;;5072302;28;20378;-67
2021/12/29 07:24:51;;;;;;;0.90;0.75;;;14.50;99.90;;;;;;5071941;28;20025;-66
2021/12/29 07:27:17;;;;;;;1.63;0.95;;;14.50;99.90;;;;;;5072112;28;20104;-67
2021/12/29 07:29:42;;;;;;;0.82;0.60;;;14.60;99.90;;;;;;5074429;28;20036;-67
2021/12/29 07:32:09;;;;;;;0.70;0.57;;;14.60;99.90;;;;;;5069177;28;20029;-68
2021/12/29 07:34:35;;;;;;;0.85;0.60;;;14.60;99.90;;;;;;5072653;28;20032;-67
2021/12/29 07:37:01;;;;;;;1.98;0.60;;;14.70;99.90;;;;;;5072164;28;20036;-68
2021/12/29 07:39:27;;;;;;;2.05;0.60;;;14.70;99.90;;;;;;5072916;28;20025;-68
2021/12/29 07:41:53;;;;;;;1.17;0.52;;;14.70;99.90;;;;;;5055034;28;20421;-67
2021/12/29 07:44:19;;;;;;;3.10;0.70;;;14.80;99.90;;;;;;5056807;28;20027;-67
2021/12/29 07:46:48;;;;;;;1.30;0.60;;;14.80;99.90;;;;;;5073063;28;20017;-67
2021/12/29 07:49:14;;;;;;;0.73;0.40;;;14.90;99.90;;;;;;5071168;28;20036;-67
2021/12/29 07:51:41;;;;;;;0.68;0.50;;;14.90;99.90;;;;;;5072491;28;20024;-67
2021/12/29 07:54:07;;;;;;;0.50;0.50;;;15.00;99.90;;;;;;5073644;28;20035;-68
2021/12/29 07:56:33;;;;;;;1.65;0.60;;;15.00;99.90;;;;;;5073634;28;20032;-68
2021/12/29 07:58:59;;;;;;;0.80;0.52;;;15.10;99.90;;;;;;5072559;28;20097;-67
2021/12/29 08:01:25;;;;;;;1.45;0.70;;;15.10;99.90;;;;;;5071174;28;20029;-68
2021/12/29 08:03:51;;;;;;;2.67;0.80;;;15.10;99.90;;;;;;5072895;28;20109;-68
2021/12/29 08:06:17;;;;;;;1.05;0.63;;;15.20;99.90;;;;;;5073179;28;20485;-68
2021/12/29 08:08:43;;;;;;;1.33;0.95;;;15.20;99.90;;;;;;5073714;28;20025;-68
2021/12/29 08:11:09;;;;;;;1.30;0.70;;;15.30;99.90;;;;;;5073323;28;20397;-68
2021/12/29 08:13:34;;;;;;;1.90;0.80;;;15.40;99.90;;;;;;5069519;28;20036;-68
2021/12/29 08:16:00;;;;;;;1.80;0.60;;;15.40;99.90;;;;;;5068609;28;20036;-68
2021/12/29 08:18:26;;;;;;;1.20;0.77;;;15.50;99.90;;;;;;5071087;28;20476;-69
2021/12/29 08:20:52;;;;;;;1.17;0.68;;;15.60;99.90;;;;;;5070813;28;20403;-70
2021/12/29 08:23:17;;;;;;;0.70;0.57;;;15.70;99.90;;;;;;5069883;28;20063;-69
2021/12/29 08:25:44;;;;;;;0.75;0.70;;;15.70;99.90;;;;;;5068861;28;20111;-69
2021/12/29 08:28:09;;;;;;;1.33;0.80;;;15.80;99.90;;;;;;5068388;28;20115;-67
2021/12/29 08:30:36;;;;;;;1.75;0.85;;;15.80;99.90;;;;;;5069586;28;20052;-67
2021/12/29 08:33:02;;;;;;;1.95;0.80;;;16.00;99.90;;;;;;5068644;28;20493;-67
2021/12/29 08:35:28;;;;;;;1.00;0.70;;;16.20;99.90;;;;;;5065106;28;20051;-68
2021/12/29 08:37:55;;;;;;;2.85;0.82;;;16.30;99.90;;;;;;5061010;28;20368;-68
2021/12/29 08:40:21;;;;;;;2.28;0.80;;;16.30;99.90;;;;;;5066405;28;20386;-67
2021/12/29 08:42:48;;;;;;;1.67;0.70;;;16.30;99.90;;;;;;5062695;28;20077;-67
2021/12/29 08:45:15;;;;;;;1.10;0.60;;;16.30;99.90;;;;;;5070548;28;20036;-70
2021/12/29 08:47:43;;;;;;;1.33;0.70;;;16.20;99.90;;;;;;5069387;28;20024;-68
2021/12/29 08:50:12;;;;;;;1.77;1.00;;;16.30;99.90;;;;;;5067205;28;21164;-67
2021/12/29 08:52:39;;;;;;;1.60;0.90;;;16.30;99.90;;;;;;5066944;28;20035;-67
2021/12/29 08:55:09;;;;;;;1.88;0.90;;;16.50;99.90;;;;;;5067067;28;20071;-67
2021/12/29 08:57:34;;;;;;;1.23;0.90;;;16.80;99.90;;;;;;5067965;28;20061;-67
2021/12/29 09:00:00;;;;;;;1.88;0.90;;;16.90;99.90;;;;;;5069637;28;20096;-68
2021/12/29 09:02:26;;;;;;;1.27;0.77;;;16.90;99.90;;;;;;5068907;28;20028;-69
2021/12/29 09:04:53;;;;;;;1.65;0.63;;;16.80;99.90;;;;;;5066624;28;20449;-71
2021/12/29 09:07:19;;;;;;;0.63;0.50;;;16.80;99.90;;;;;;5066829;28;20406;-70
2021/12/29 09:09:44;;;;;;;1.35;0.68;;;16.80;99.90;;;;;;5066801;28;20029;-68
2021/12/29 09:12:10;;;;;;;1.80;0.80;;;16.70;99.90;;;;;;5071121;28;20032;-69
2021/12/29 09:14:36;;;;;;;3.08;0.70;;;16.70;99.90;;;;;;5068982;28;20112;-69
2021/12/29 09:17:02;;;;;;;2.42;0.85;;;16.80;99.90;;;;;;5069609;28;20075;-68
2021/12/29 09:19:30;;;;;;;1.65;0.70;;;17.00;99.90;;;;;;5069326;28;20511;-67
2021/12/29 09:21:56;;;;;;;1.95;0.70;;;17.00;99.90;;;;;;5069068;28;20106;-68
2021/12/29 09:24:22;;;;;;;1.52;0.90;;;17.10;99.90;;;;;;5061610;28;20032;-68
2021/12/29 09:26:48;;;;;;;3.33;0.77;;;17.30;99.90;;;;;;5068002;28;20039;-68
2021/12/29 09:29:14;;;;;;;1.70;0.90;;;17.40;99.90;;;;;;5052375;28;20489;-68
2021/12/29 09:31:40;;;;;;;1.27;0.80;;;17.60;99.90;;;;;;5068619;28;20071;-68
2021/12/29 09:34:07;;;;;;;2.00;0.63;;;17.80;99.90;;;;;;5068137;28;20083;-69
2021/12/29 09:36:33;;;;;;;2.03;0.65;;;18.10;99.90;;;;;;5064138;28;20490;-69
2021/12/29 09:39:00;;;;;;;2.28;0.73;;;18.30;99.90;;;;;;5065716;28;20478;-68
2021/12/29 09:41:26;;;;;;;4.05;0.90;;;18.30;99.90;;;;;;5068063;28;20036;-68
2021/12/29 09:43:52;;;;;;;1.63;0.70;;;18.40;99.90;;;;;;5064879;28;20068;-68
2021/12/29 09:46:18;;;;;;;1.75;0.80;;;18.50;99.90;;;;;;5041518;28;20091;-68
2021/12/29 09:48:45;;;;;;;1.17;0.77;;;18.50;99.90;;;;;;5050627;28;20056;-68
2021/12/29 09:51:12;;;;;;;1.98;0.70;;;18.60;99.90;;;;;;5064734;28;20090;-68
2021/12/29 09:53:42;;;;;;;1.20;0.70;;;18.70;99.90;;;;;;5067656;28;20154;-68
2021/12/29 09:56:10;;;;;;;1.52;0.70;;;18.40;99.90;;;;;;5065815;28;20051;-68
2021/12/29 09:58:36;;;;;;;3.53;0.98;;;18.50;99.90;;;;;;5064927;28;20072;-68
2021/12/29 10:01:05;;;;;;;3.67;1.00;;;18.60;99.90;;;;;;5063811;28;20076;-69
2021/12/29 10:03:33;;;;;;;3.13;1.10;;;18.80;99.90;;;;;;5066713;28;20378;-69
2021/12/29 10:06:02;;;;;;;2.35;0.90;;;19.00;99.90;;;;;;5064944;28;20070;-69
2021/12/29 10:08:33;;;;;;;2.42;1.00;;;19.10;99.90;;;;;;5065739;28;20059;-68
2021/12/29 10:11:05;;;;;;;3.00;1.00;;;19.30;99.90;;;;;;5063685;28;20725;-69
2021/12/29 10:13:39;;;;;;;3.30;1.10;;;19.40;99.90;;;;;;5039046;28;20028;-68
2021/12/29 10:16:08;;;;;;;3.08;1.00;;;19.40;99.90;;;;;;5046561;28;20040;-68
2021/12/29 10:18:36;;;;;;;2.95;0.82;;;19.50;99.90;;;;;;5067280;28;20060;-68
2021/12/29 10:21:08;;;;;;;2.45;1.00;;;19.40;99.90;;;;;;5064016;28;20017;-68
2021/12/29 10:23:38;;;;;;;2.78;1.10;;;19.50;99.90;;;;;;5044768;28;20029;-68
2021/12/29 10:26:30;;;;;;;3.33;1.17;;;19.50;99.90;;;;;;5064390;28;20036;-68
2021/12/29 10:29:00;;;;;;;2.40;1.25;;;19.60;99.90;;;;;;5062118;28;20102;-68
2021/12/29 10:31:38;;;;;;;6.45;1.10;;;19.90;99.90;;;;;;5063222;28;20040;-69
2021/12/29 10:34:12;;;;;;;4.15;1.00;;;19.70;99.90;;;;;;5063142;28;20533;-68
2021/12/29 10:36:50;;;;;;;5.22;1.40;;;19.70;99.90;;;;;;5044007;28;20529;-68
2021/12/29 10:39:31;;;;;;;4.15;1.35;;;19.70;99.90;;;;;;5068856;28;20044;-68
2021/12/29 10:42:03;;;;;;;3.20;1.13;;;19.70;99.90;;;;;;5067349;28;20033;-69
2021/12/29 10:44:37;;;;;;;4.50;1.20;;;19.30;99.90;;;;;;5051908;28;20021;-69
2021/12/29 10:47:24;;;;;;;3.50;1.15;;;19.20;99.90;;;;;;5065122;28;20029;-69
2021/12/29 10:50:01;;;;;;;2.25;1.17;;;19.40;99.90;;;;;;5063266;28;20054;-69
2021/12/29 10:52:38;;;;;;;2.85;1.10;;;19.50;99.90;;;;;;5049819;28;20098;-69
2021/12/29 10:55:10;;;;;;;3.70;1.00;;;19.60;99.90;;;;;;5069093;28;20037;-69
2021/12/29 10:57:37;;;;;;;4.68;1.30;;;19.60;99.90;;;;;;5063757;28;20522;-69
2021/12/29 11:00:05;;;;;;;3.40;1.33;;;19.80;99.90;;;;;;5068776;28;20049;-69
2021/12/29 11:02:33;;;;;;;3.97;1.15;;;19.80;99.90;;;;;;5071222;28;20086;-69
2021/12/29 11:05:03;;;;;;;4.55;1.52;;;19.90;99.90;;;;;;5067931;28;20074;-69
2021/12/29 11:07:31;;;;;;;3.75;1.17;;;20.00;99.90;;;;;;5067605;28;20056;-69
2021/12/29 11:10:11;;;;;;;4.18;1.38;;;20.20;99.90;;;;;;5054287;28;20036;-69
2021/12/29 11:12:52;;;;;;;5.05;1.20;;;20.30;99.90;;;;;;5063428;28;20029;-69
2021/12/29 11:15:26;;;;;;;3.97;1.30;;;20.40;99.90;;;;;;5051634;28;20106;-69
2021/12/29 11:17:56;;;;;;;4.43;1.60;;;20.40;99.90;;;;;;5073531;28;20024;-69
2021/12/29 11:20:26;;;;;;;3.40;1.15;;;20.30;99.90;;;;;;5073527;28;20048;-69
2021/12/29 11:23:02;;;;;;;5.45;1.27;;;20.30;99.90;;;;;;5072370;28;20028;-69
2021/12/29 11:25:29;;;;;;;4.40;1.48;;;20.60;99.90;;;;;;5052243;28;20036;-69
2021/12/29 11:27:55;;;;;;;5.90;1.30;;;20.70;99.90;;;;;;5070876;28;20021;-69
2021/12/29 11:30:21;;;;;;;6.25;1.42;;;20.60;99.90;;;;;;5071283;28;20039;-69
2021/12/29 11:32:48;;;;;;;2.60;1.00;;;20.60;99.90;;;;;;5073631;28;20075;-69
2021/12/29 11:35:20;;;;;;;4.65;1.20;;;20.50;99.90;;;;;;5071291;28;20044;-69
2021/12/29 11:37:47;;;;;;;3.35;1.35;;;20.80;99.90;;;;;;5049938;28;20025;-69
2021/12/29 11:40:16;;;;;;;3.55;1.15;;;20.70;99.90;;;;;;5070779;28;20039;-69
2021/12/29 11:42:42;;;;;;;5.65;1.67;;;20.50;99.90;;;;;;5061736;28;20363;-69
2021/12/29 11:45:10;;;;;;;4.45;1.42;;;20.40;99.90;;;;;;5070538;28;20055;-69
2021/12/29 11:47:36;;;;;;;3.60;1.20;;;20.30;99.90;;;;;;5071671;28;20028;-69
2021/12/29 11:50:03;;;;;;;5.72;1.38;;;20.10;99.90;;;;;;5070600;28;20478;-69
2021/12/29 11:52:52;;;;;;;3.90;1.33;;;20.10;99.90;;;;;;5070596;28;20033;-69
2021/12/29 11:55:21;;;;;;;7.55;1.65;;;20.10;99.90;;;;;;5071213;28;20039;-69
2021/12/29 11:57:47;;;;;;;6.13;1.40;;;20.20;99.90;;;;;;5062340;28;20118;-69
2021/12/29 12:00:20;;;;;;;4.50;1.20;;;20.20;99.90;;;;;;5070691;28;20041;-69
2021/12/29 12:02:48;;;;;;;4.40;1.40;;;20.00;99.90;;;;;;5069888;28;20097;-69
2021/12/29 12:05:17;;;;;;;4.18;1.20;;;19.90;99.90;;;;;;5070229;28;20108;-69
2021/12/29 12:07:43;;;;;;;4.97;1.35;;;19.90;99.90;;;;;;5070242;28;20029;-69
2021/12/29 12:10:14;;;;;;;3.40;0.90;;;20.00;99.90;;;;;;5070157;28;20034;-69
2021/12/29 12:12:46;;;;;;;3.58;1.00;;;20.00;99.90;;;;;;5069761;28;20020;-68
2021/12/29 12:15:13;;;;;;;2.53;0.70;;;20.10;99.90;;;;;;5065269;28;20115;-69
2021/12/29 12:17:41;;;;;;;1.90;0.70;;;19.90;99.90;;;;;;5074561;28;20457;-69
2021/12/29 12:20:10;;;;;;;3.53;1.40;;;20.00;99.90;;;;;;5070014;28;20070;-70
2021/12/29 12:22:44;;;;;;;1.83;0.70;;;20.10;99.90;;;;;;5069594;28;20021;-70
2021/12/29 12:25:10;;;;;;;;;;;20.30;99.90;;;;;;5070059;28;20024;-70
2021/12/29 12:27:36;;;;;;;0.98;0.50;;;20.40;99.90;;;;;;5069738;28;20358;-70
2021/12/29 12:30:12;;;;;;;1.77;0.50;;;20.30;99.90;;;;;;5070406;28;20075;-72
2021/12/29 12:32:40;;;;;;;1.23;0.40;;;20.40;99.90;;;;;;5072509;28;20040;-70
2021/12/29 12:35:06;;;;;;;0.63;0.40;;;20.80;99.90;;;;;;5070123;28;20484;-70
2021/12/29 12:37:39;;;;;;;2.22;0.50;;;20.80;99.90;;;;;;5070031;28;20025;-70
2021/12/29 12:40:30;;;;;;;1.30;0.50;;;20.50;99.90;;;;;;5068119;28;20063;-70
2021/12/29 12:43:10;;;;;;;5.47;0.57;;;20.40;99.90;;;;;;5061267;28;20509;-70
2021/12/29 12:45:38;;;;;;;0.28;0.28;;;20.20;99.90;;;;;;5069366;28;20398;-71
2021/12/29 12:48:08;;;;;;;1.55;0.47;;;20.00;99.90;;;;;;5070150;28;20028;-70
2021/12/29 12:50:35;;;;;;;1.25;0.40;;;19.90;99.90;;;;;;5053228;28;20020;-70
2021/12/29 12:53:02;;;;;;;1.05;0.75;;;19.90;99.90;;;;;;5069368;28;20028;-70